sensor_id;sensor_type;location;lat;lon;timestamp;P1;P2;P0
30713;PMS7003;17465;47.934;33.430;2023-04-01T00:01:38;33.25;28.25;16.75
30713;PMS7003;17465;47.934;33.430;2023-04-01T00:04:09;34.25;32.25;16.75
30713;PMS7003;17465;47.934;33.430;2023-04-01T00:06:40;31.50;28.00;12.75
30713;PMS7003;17465;47.934;33.430;2023-04-01T00:09:10;29.25;24.50;12.75
30713;PMS7003;17465;47.934;33.430;2023-04-01T00:11:42;24.25;24.00;17.00
30713;PMS7003;17465;47.934;33.430;2023-04-01T00:14:12;28.50;24.00;15.75
30713;PMS7003;17465;47.934;33.430;2023-04-01T00:16:43;32.75;29.00;17.50
30713;PMS7003;17465;47.934;33.430;2023-04-01T00:19:14;29.25;28.00;17.50
30713;PMS7003;17465;47.934;33.430;2023-04-01T00:21:44;33.00;31.00;16.75
30713;PMS7003;17465;47.934;33.430;2023-04-01T00:24:15;38.00;33.50;17.50
30713;PMS7003;17465;47.934;33.430;2023-04-01T00:26:45;45.75;38.25;23.75
30713;PMS7003;17465;47.934;33.430;2023-04-01T00:29:16;38.50;35.00;19.25
30713;PMS7003;17465;47.934;33.430;2023-04-01T00:31:47;41.75;38.50;23.00
30713;PMS7003;17465;47.934;33.430;2023-04-01T00:34:17;49.00;41.50;23.25
30713;PMS7003;17465;47.934;33.430;2023-04-01T00:36:48;47.50;42.25;22.50
30713;PMS7003;17465;47.934;33.430;2023-04-01T00:39:20;47.50;40.50;25.25
30713;PMS7003;17465;47.934;33.430;2023-04-01T00:42:10;54.50;43.00;26.00
30713;PMS7003;17465;47.934;33.430;2023-04-01T00:44:41;47.50;41.75;24.75
30713;PMS7003;17465;47.934;33.430;2023-04-01T00:47:12;57.25;44.50;25.00
30713;PMS7003;17465;47.934;33.430;2023-04-01T00:49:44;61.50;51.25;30.75
30713;PMS7003;17465;47.934;33.430;2023-04-01T00:52:17;70.50;55.50;33.50
30713;PMS7003;17465;47.934;33.430;2023-04-01T00:54:49;63.50;51.75;30.75
30713;PMS7003;17465;47.934;33.430;2023-04-01T00:57:25;62.00;50.25;31.00
30713;PMS7003;17465;47.934;33.430;2023-04-01T00:59:58;60.25;50.00;30.75
30713;PMS7003;17465;47.934;33.430;2023-04-01T01:02:28;67.50;56.00;38.75
30713;PMS7003;17465;47.934;33.430;2023-04-01T01:05:03;70.00;55.50;35.25
30713;PMS7003;17465;47.934;33.430;2023-04-01T01:07:39;70.75;54.75;34.25
30713;PMS7003;17465;47.934;33.430;2023-04-01T01:10:33;68.50;55.75;33.75
30713;PMS7003;17465;47.934;33.430;2023-04-01T01:13:11;75.25;60.50;38.75
30713;PMS7003;17465;47.934;33.430;2023-04-01T01:15:55;60.00;50.25;34.25
30713;PMS7003;17465;47.934;33.430;2023-04-01T01:25:00;72.50;56.75;36.25
30713;PMS7003;17465;47.934;33.430;2023-04-01T01:29:45;76.00;59.00;34.50
30713;PMS7003;17465;47.934;33.430;2023-04-01T01:32:44;77.25;61.00;37.25
30713;PMS7003;17465;47.934;33.430;2023-04-01T01:35:37;74.50;58.75;35.00
30713;PMS7003;17465;47.934;33.430;2023-04-01T01:38:14;82.00;66.00;41.75
30713;PMS7003;17465;47.934;33.430;2023-04-01T01:40:48;83.00;64.75;40.75
30713;PMS7003;17465;47.934;33.430;2023-04-01T01:43:24;86.75;70.25;41.25
30713;PMS7003;17465;47.934;33.430;2023-04-01T01:45:58;78.75;64.00;40.00
30713;PMS7003;17465;47.934;33.430;2023-04-01T01:48:30;80.50;63.75;40.75
30713;PMS7003;17465;47.934;33.430;2023-04-01T01:51:04;84.75;68.00;41.25
30713;PMS7003;17465;47.934;33.430;2023-04-01T01:53:35;96.50;88.75;52.75
30713;PMS7003;17465;47.934;33.430;2023-04-01T01:56:06;95.25;82.00;47.00
30713;PMS7003;17465;47.934;33.430;2023-04-01T01:58:38;88.00;74.50;47.00
30713;PMS7003;17465;47.934;33.430;2023-04-01T02:01:21;90.25;76.25;48.75
30713;PMS7003;17465;47.934;33.430;2023-04-01T02:03:53;94.25;83.00;49.75
30713;PMS7003;17465;47.934;33.430;2023-04-01T02:06:27;94.50;87.25;56.75
30713;PMS7003;17465;47.934;33.430;2023-04-01T02:09:02;85.50;69.25;46.50
30713;PMS7003;17465;47.934;33.430;2023-04-01T02:14:19;82.50;64.25;37.25
30713;PMS7003;17465;47.934;33.430;2023-04-01T02:16:53;83.50;68.00;38.75
30713;PMS7003;17465;47.934;33.430;2023-04-01T02:19:33;79.75;63.75;39.50
30713;PMS7003;17465;47.934;33.430;2023-04-01T02:22:08;76.75;58.75;34.00
30713;PMS7003;17465;47.934;33.430;2023-04-01T02:24:41;83.25;62.75;37.00
30713;PMS7003;17465;47.934;33.430;2023-04-01T02:27:13;68.00;53.00;31.25
30713;PMS7003;17465;47.934;33.430;2023-04-01T02:29:44;69.75;53.75;30.75
30713;PMS7003;17465;47.934;33.430;2023-04-01T02:32:16;75.25;59.00;35.00
30713;PMS7003;17465;47.934;33.430;2023-04-01T02:34:48;76.50;59.25;34.25
30713;PMS7003;17465;47.934;33.430;2023-04-01T02:37:20;76.00;56.00;32.25
30713;PMS7003;17465;47.934;33.430;2023-04-01T02:39:51;83.75;67.50;37.25
30713;PMS7003;17465;47.934;33.430;2023-04-01T02:42:22;75.50;61.00;36.50
30713;PMS7003;17465;47.934;33.430;2023-04-01T02:44:52;69.75;56.00;34.25
30713;PMS7003;17465;47.934;33.430;2023-04-01T02:47:23;76.00;55.50;32.25
30713;PMS7003;17465;47.934;33.430;2023-04-01T02:49:53;69.25;55.75;33.50
30713;PMS7003;17465;47.934;33.430;2023-04-01T02:52:25;78.75;61.00;34.25
30713;PMS7003;17465;47.934;33.430;2023-04-01T02:54:56;74.75;58.25;34.50
30713;PMS7003;17465;47.934;33.430;2023-04-01T02:57:27;62.25;53.00;28.75
30713;PMS7003;17465;47.934;33.430;2023-04-01T02:59:58;87.25;66.75;39.00
30713;PMS7003;17465;47.934;33.430;2023-04-01T03:02:29;76.00;62.50;37.75
30713;PMS7003;17465;47.934;33.430;2023-04-01T03:05:00;77.75;60.75;37.25
30713;PMS7003;17465;47.934;33.430;2023-04-01T03:07:31;76.25;56.75;33.50
30713;PMS7003;17465;47.934;33.430;2023-04-01T03:10:02;80.25;63.00;37.75
30713;PMS7003;17465;47.934;33.430;2023-04-01T03:12:33;79.75;62.00;36.75
30713;PMS7003;17465;47.934;33.430;2023-04-01T03:15:04;75.75;61.00;34.75
30713;PMS7003;17465;47.934;33.430;2023-04-01T03:17:38;75.25;60.00;35.75
30713;PMS7003;17465;47.934;33.430;2023-04-01T03:20:09;73.75;57.50;32.50
30713;PMS7003;17465;47.934;33.430;2023-04-01T03:22:41;73.25;55.50;32.00
30713;PMS7003;17465;47.934;33.430;2023-04-01T03:25:12;68.75;53.00;29.25
30713;PMS7003;17465;47.934;33.430;2023-04-01T03:27:42;71.00;55.25;31.75
30713;PMS7003;17465;47.934;33.430;2023-04-01T03:30:14;72.25;55.75;32.50
30713;PMS7003;17465;47.934;33.430;2023-04-01T03:32:47;73.00;57.00;33.00
30713;PMS7003;17465;47.934;33.430;2023-04-01T03:35:18;58.50;47.75;28.25
30713;PMS7003;17465;47.934;33.430;2023-04-01T03:37:49;67.00;50.00;28.75
30713;PMS7003;17465;47.934;33.430;2023-04-01T03:40:21;62.75;48.00;28.50
30713;PMS7003;17465;47.934;33.430;2023-04-01T03:42:53;60.50;49.50;29.00
30713;PMS7003;17465;47.934;33.430;2023-04-01T03:45:24;60.50;47.75;26.75
30713;PMS7003;17465;47.934;33.430;2023-04-01T03:47:55;63.75;51.25;28.75
30713;PMS7003;17465;47.934;33.430;2023-04-01T03:50:26;72.75;54.75;31.50
30713;PMS7003;17465;47.934;33.430;2023-04-01T03:52:58;59.75;45.75;29.00
30713;PMS7003;17465;47.934;33.430;2023-04-01T03:55:29;65.75;53.25;30.00
30713;PMS7003;17465;47.934;33.430;2023-04-01T03:58:03;75.75;60.00;34.00
30713;PMS7003;17465;47.934;33.430;2023-04-01T04:00:38;63.75;53.25;29.50
30713;PMS7003;17465;47.934;33.430;2023-04-01T04:03:09;82.00;65.00;38.75
30713;PMS7003;17465;47.934;33.430;2023-04-01T04:05:45;59.25;47.00;29.00
30713;PMS7003;17465;47.934;33.430;2023-04-01T04:08:18;54.25;42.00;24.25
30713;PMS7003;17465;47.934;33.430;2023-04-01T04:10:53;56.00;44.75;25.00
30713;PMS7003;17465;47.934;33.430;2023-04-01T04:13:26;57.00;46.75;28.00
30713;PMS7003;17465;47.934;33.430;2023-04-01T04:15:57;39.00;36.75;20.75
30713;PMS7003;17465;47.934;33.430;2023-04-01T04:18:28;51.00;43.00;24.25
30713;PMS7003;17465;47.934;33.430;2023-04-01T04:20:59;45.75;39.00;21.00
30713;PMS7003;17465;47.934;33.430;2023-04-01T04:23:30;90.25;73.50;43.00
30713;PMS7003;17465;47.934;33.430;2023-04-01T04:26:06;65.50;52.25;31.25
30713;PMS7003;17465;47.934;33.430;2023-04-01T04:28:37;63.50;51.75;29.50
30713;PMS7003;17465;47.934;33.430;2023-04-01T04:31:10;58.25;44.00;22.75
30713;PMS7003;17465;47.934;33.430;2023-04-01T04:33:42;67.00;53.25;34.00
30713;PMS7003;17465;47.934;33.430;2023-04-01T04:36:12;64.25;52.00;30.00
30713;PMS7003;17465;47.934;33.430;2023-04-01T04:38:44;64.75;53.00;30.75
30713;PMS7003;17465;47.934;33.430;2023-04-01T04:41:15;92.75;79.50;49.50
30713;PMS7003;17465;47.934;33.430;2023-04-01T04:43:49;109.50;95.00;50.50
30713;PMS7003;17465;47.934;33.430;2023-04-01T04:46:23;87.25;72.00;39.25
30713;PMS7003;17465;47.934;33.430;2023-04-01T04:48:54;76.00;58.75;32.75
30713;PMS7003;17465;47.934;33.430;2023-04-01T04:51:25;72.50;56.25;31.75
30713;PMS7003;17465;47.934;33.430;2023-04-01T04:53:56;72.75;57.25;31.00
30713;PMS7003;17465;47.934;33.430;2023-04-01T04:56:27;82.75;62.75;35.75
30713;PMS7003;17465;47.934;33.430;2023-04-01T04:59:00;85.00;67.50;37.25
30713;PMS7003;17465;47.934;33.430;2023-04-01T05:01:31;86.25;67.50;40.00
30713;PMS7003;17465;47.934;33.430;2023-04-01T05:04:01;79.50;63.00;35.00
30713;PMS7003;17465;47.934;33.430;2023-04-01T05:06:32;78.00;60.00;34.25
30713;PMS7003;17465;47.934;33.430;2023-04-01T05:09:02;92.25;72.25;38.75
30713;PMS7003;17465;47.934;33.430;2023-04-01T05:11:33;88.25;73.75;39.75
30713;PMS7003;17465;47.934;33.430;2023-04-01T05:14:12;90.25;77.00;43.75
30713;PMS7003;17465;47.934;33.430;2023-04-01T05:16:44;91.50;76.25;40.25
30713;PMS7003;17465;47.934;33.430;2023-04-01T05:19:15;82.50;63.75;35.00
30713;PMS7003;17465;47.934;33.430;2023-04-01T05:21:46;87.75;71.00;41.50
30713;PMS7003;17465;47.934;33.430;2023-04-01T05:24:20;72.25;57.75;37.00
30713;PMS7003;17465;47.934;33.430;2023-04-01T05:26:50;84.25;68.00;42.00
30713;PMS7003;17465;47.934;33.430;2023-04-01T05:29:23;90.00;76.50;47.25
30713;PMS7003;17465;47.934;33.430;2023-04-01T05:31:55;85.50;74.50;42.00
30713;PMS7003;17465;47.934;33.430;2023-04-01T05:34:26;91.00;77.50;46.75
30713;PMS7003;17465;47.934;33.430;2023-04-01T05:36:56;87.75;74.25;43.25
30713;PMS7003;17465;47.934;33.430;2023-04-01T05:39:26;86.75;73.00;43.25
30713;PMS7003;17465;47.934;33.430;2023-04-01T05:41:57;83.25;68.50;41.50
30713;PMS7003;17465;47.934;33.430;2023-04-01T05:44:30;74.50;58.75;36.50
30713;PMS7003;17465;47.934;33.430;2023-04-01T05:47:01;75.00;59.50;38.00
30713;PMS7003;17465;47.934;33.430;2023-04-01T05:49:33;67.75;54.50;35.50
30713;PMS7003;17465;47.934;33.430;2023-04-01T05:52:04;77.50;61.75;40.25
30713;PMS7003;17465;47.934;33.430;2023-04-01T05:54:35;74.75;59.25;37.25
30713;PMS7003;17465;47.934;33.430;2023-04-01T05:57:05;72.00;55.25;33.50
30713;PMS7003;17465;47.934;33.430;2023-04-01T05:59:43;48.50;40.75;24.25
30713;PMS7003;17465;47.934;33.430;2023-04-01T06:02:50;58.00;46.50;28.50
30713;PMS7003;17465;47.934;33.430;2023-04-01T06:05:48;47.75;42.00;26.00
30713;PMS7003;17465;47.934;33.430;2023-04-01T06:25:44;58.00;47.50;29.50
30713;PMS7003;17465;47.934;33.430;2023-04-01T06:31:33;45.25;40.25;26.50
30713;PMS7003;17465;47.934;33.430;2023-04-01T06:39:38;59.00;50.75;33.25
30713;PMS7003;17465;47.934;33.430;2023-04-01T06:48:11;79.50;61.75;38.75
30713;PMS7003;17465;47.934;33.430;2023-04-01T06:51:04;84.00;74.75;49.00
30713;PMS7003;17465;47.934;33.430;2023-04-01T06:54:11;83.25;71.00;46.50
30713;PMS7003;17465;47.934;33.430;2023-04-01T06:56:44;89.50;81.25;53.00
30713;PMS7003;17465;47.934;33.430;2023-04-01T06:59:19;87.75;75.25;49.25
30713;PMS7003;17465;47.934;33.430;2023-04-01T07:04:58;44.75;39.00;26.00
30713;PMS7003;17465;47.934;33.430;2023-04-01T07:10:14;39.50;33.50;22.00
30713;PMS7003;17465;47.934;33.430;2023-04-01T07:13:02;45.75;40.25;25.50
30713;PMS7003;17465;47.934;33.430;2023-04-01T07:15:39;63.50;51.00;33.00
30713;PMS7003;17465;47.934;33.430;2023-04-01T07:18:19;51.50;44.25;27.25
30713;PMS7003;17465;47.934;33.430;2023-04-01T07:20:48;59.50;47.75;33.00
30713;PMS7003;17465;47.934;33.430;2023-04-01T07:26:06;63.00;52.00;35.00
30713;PMS7003;17465;47.934;33.430;2023-04-01T07:28:47;67.50;53.25;33.00
30713;PMS7003;17465;47.934;33.430;2023-04-01T07:34:19;45.50;40.00;26.25
30713;PMS7003;17465;47.934;33.430;2023-04-01T07:37:04;40.25;37.25;23.00
30713;PMS7003;17465;47.934;33.430;2023-04-01T07:45:36;32.00;29.50;14.25
30713;PMS7003;17465;47.934;33.430;2023-04-01T07:53:46;52.75;42.25;24.00
30713;PMS7003;17465;47.934;33.430;2023-04-01T08:05:07;48.75;39.25;23.00
30713;PMS7003;17465;47.934;33.430;2023-04-01T08:21:54;50.00;40.25;26.00
30713;PMS7003;17465;47.934;33.430;2023-04-01T08:24:34;45.75;36.50;26.50
30713;PMS7003;17465;47.934;33.430;2023-04-01T08:30:02;52.75;45.00;29.00
30713;PMS7003;17465;47.934;33.430;2023-04-01T08:32:38;69.25;55.75;37.25
30713;PMS7003;17465;47.934;33.430;2023-04-01T08:35:18;71.25;59.00;39.00
30713;PMS7003;17465;47.934;33.430;2023-04-01T08:37:55;72.50;58.50;39.00
30713;PMS7003;17465;47.934;33.430;2023-04-01T08:43:44;73.50;59.25;39.00
30713;PMS7003;17465;47.934;33.430;2023-04-01T08:46:37;52.00;44.00;29.00
30713;PMS7003;17465;47.934;33.430;2023-04-01T08:55:40;53.00;45.75;28.00
30713;PMS7003;17465;47.934;33.430;2023-04-01T08:58:38;28.25;24.50;14.25
30713;PMS7003;17465;47.934;33.430;2023-04-01T09:01:24;28.50;25.00;18.25
30713;PMS7003;17465;47.934;33.430;2023-04-01T09:18:09;18.50;18.50;11.00
30713;PMS7003;17465;47.934;33.430;2023-04-01T09:29:38;33.00;31.25;20.25
30713;PMS7003;17465;47.934;33.430;2023-04-01T09:33:04;102.50;89.50;54.00
30713;PMS7003;17465;47.934;33.430;2023-04-01T09:44:03;68.25;54.75;35.25
30713;PMS7003;17465;47.934;33.430;2023-04-01T09:52:28;70.50;58.00;35.25
30713;PMS7003;17465;47.934;33.430;2023-04-01T09:57:45;41.00;34.25;19.25
30713;PMS7003;17465;47.934;33.430;2023-04-01T10:00:38;44.50;40.00;23.75
30713;PMS7003;17465;47.934;33.430;2023-04-01T10:06:47;55.25;46.50;29.25
30713;PMS7003;17465;47.934;33.430;2023-04-01T10:21:11;83.75;69.25;44.75
30713;PMS7003;17465;47.934;33.430;2023-04-01T10:24:22;65.75;53.25;34.00
30713;PMS7003;17465;47.934;33.430;2023-04-01T10:27:10;57.25;47.50;26.75
30713;PMS7003;17465;47.934;33.430;2023-04-01T10:42:09;71.25;57.25;37.75
30713;PMS7003;17465;47.934;33.430;2023-04-01T10:50:50;73.50;58.75;39.00
30713;PMS7003;17465;47.934;33.430;2023-04-01T11:02:29;36.00;34.50;23.00
30713;PMS7003;17465;47.934;33.430;2023-04-01T11:05:33;41.75;36.00;23.00
30713;PMS7003;17465;47.934;33.430;2023-04-01T11:11:08;35.75;32.25;20.50
30713;PMS7003;17465;47.934;33.430;2023-04-01T11:14:07;42.50;37.75;22.75
30713;PMS7003;17465;47.934;33.430;2023-04-01T11:16:53;43.50;37.25;22.25
30713;PMS7003;17465;47.934;33.430;2023-04-01T11:19:50;30.25;29.50;12.25
30713;PMS7003;17465;47.934;33.430;2023-04-01T11:28:47;46.75;38.00;22.00
30713;PMS7003;17465;47.934;33.430;2023-04-01T11:40:11;28.25;26.75;15.75
30713;PMS7003;17465;47.934;33.430;2023-04-01T12:06:08;22.25;21.25;13.75
30713;PMS7003;17465;47.934;33.430;2023-04-01T12:14:24;34.75;32.25;19.75
30713;PMS7003;17465;47.934;33.430;2023-04-01T12:17:09;27.25;26.25;16.25
30713;PMS7003;17465;47.934;33.430;2023-04-01T12:23:05;23.50;19.50;12.75
30713;PMS7003;17465;47.934;33.430;2023-04-01T12:25:57;37.00;32.75;20.50
30713;PMS7003;17465;47.934;33.430;2023-04-01T12:28:37;31.50;27.00;15.75
30713;PMS7003;17465;47.934;33.430;2023-04-01T12:37:17;30.50;29.25;16.25
30713;PMS7003;17465;47.934;33.430;2023-04-01T12:45:44;22.00;19.50;11.50
30713;PMS7003;17465;47.934;33.430;2023-04-01T13:02:23;25.75;22.25;11.00
30713;PMS7003;17465;47.934;33.430;2023-04-01T13:08:07;25.25;21.50;14.75
30713;PMS7003;17465;47.934;33.430;2023-04-01T13:19:53;25.75;23.50;15.75
30713;PMS7003;17465;47.934;33.430;2023-04-01T13:22:53;33.25;31.50;19.00
30713;PMS7003;17465;47.934;33.430;2023-04-01T13:25:43;29.00;23.75;12.75
30713;PMS7003;17465;47.934;33.430;2023-04-01T13:28:28;28.75;28.75;19.00
30713;PMS7003;17465;47.934;33.430;2023-04-01T13:42:56;50.75;41.75;26.50
30713;PMS7003;17465;47.934;33.430;2023-04-01T13:44:54;30.25;29.25;14.75
30713;PMS7003;17465;47.934;33.430;2023-04-01T13:50:37;40.50;35.00;24.00
30713;PMS7003;17465;47.934;33.430;2023-04-01T13:58:54;34.00;33.00;19.25
30713;PMS7003;17465;47.934;33.430;2023-04-01T14:01:47;44.50;37.00;22.00
30713;PMS7003;17465;47.934;33.430;2023-04-01T14:10:43;47.00;37.25;22.00
30713;PMS7003;17465;47.934;33.430;2023-04-01T14:13:22;41.25;36.25;21.75
30713;PMS7003;17465;47.934;33.430;2023-04-01T14:16:06;46.50;39.00;22.25
30713;PMS7003;17465;47.934;33.430;2023-04-01T14:18:42;31.50;28.00;20.25
30713;PMS7003;17465;47.934;33.430;2023-04-01T14:24:42;36.50;33.25;19.50
30713;PMS7003;17465;47.934;33.430;2023-04-01T14:27:29;34.25;33.25;18.50
30713;PMS7003;17465;47.934;33.430;2023-04-01T14:32:48;41.50;37.25;23.00
30713;PMS7003;17465;47.934;33.430;2023-04-01T14:40:55;37.50;32.00;20.25
30713;PMS7003;17465;47.934;33.430;2023-04-01T14:49:39;29.75;26.25;17.75
30713;PMS7003;17465;47.934;33.430;2023-04-01T14:54:59;36.75;32.25;20.25
30713;PMS7003;17465;47.934;33.430;2023-04-01T14:57:33;35.00;31.75;18.75
30713;PMS7003;17465;47.934;33.430;2023-04-01T15:02:57;36.75;30.75;19.50
30713;PMS7003;17465;47.934;33.430;2023-04-01T15:08:23;27.00;25.75;13.50
30713;PMS7003;17465;47.934;33.430;2023-04-01T15:13:37;34.25;32.50;18.50
30713;PMS7003;17465;47.934;33.430;2023-04-01T15:16:11;36.25;33.75;19.00
30713;PMS7003;17465;47.934;33.430;2023-04-01T15:19:20;41.25;37.50;23.25
30713;PMS7003;17465;47.934;33.430;2023-04-01T15:22:20;40.25;34.50;22.75
30713;PMS7003;17465;47.934;33.430;2023-04-01T15:25:05;31.50;27.25;16.00
30713;PMS7003;17465;47.934;33.430;2023-04-01T15:27:50;35.00;33.50;18.75
30713;PMS7003;17465;47.934;33.430;2023-04-01T15:30:31;27.50;27.00;13.00
30713;PMS7003;17465;47.934;33.430;2023-04-01T15:33:35;36.75;33.50;19.00
30713;PMS7003;17465;47.934;33.430;2023-04-01T15:36:19;32.00;30.50;18.75
30713;PMS7003;17465;47.934;33.430;2023-04-01T15:39:01;25.25;24.00;14.00
30713;PMS7003;17465;47.934;33.430;2023-04-01T15:41:36;31.25;26.25;17.75
30713;PMS7003;17465;47.934;33.430;2023-04-01T15:53:05;24.75;24.25;16.25
30713;PMS7003;17465;47.934;33.430;2023-04-01T15:55:43;30.25;28.25;19.75
30713;PMS7003;17465;47.934;33.430;2023-04-01T15:58:38;24.00;24.00;17.25
30713;PMS7003;17465;47.934;33.430;2023-04-01T16:01:16;28.00;25.75;16.50
30713;PMS7003;17465;47.934;33.430;2023-04-01T16:04:03;36.33;32.67;21.67
30713;PMS7003;17465;47.934;33.430;2023-04-01T16:15:27;29.75;27.50;14.00
30713;PMS7003;17465;47.934;33.430;2023-04-01T16:18:13;33.50;26.50;17.50
30713;PMS7003;17465;47.934;33.430;2023-04-01T16:21:02;28.75;28.00;17.75
30713;PMS7003;17465;47.934;33.430;2023-04-01T16:23:46;25.50;25.50;17.25
30713;PMS7003;17465;47.934;33.430;2023-04-01T16:32:34;32.75;31.00;20.25
30713;PMS7003;17465;47.934;33.430;2023-04-01T16:35:25;23.50;23.50;13.75
30713;PMS7003;17465;47.934;33.430;2023-04-01T16:43:45;30.50;30.00;19.25
30713;PMS7003;17465;47.934;33.430;2023-04-01T16:46:41;30.25;28.25;15.75
30713;PMS7003;17465;47.934;33.430;2023-04-01T16:52:12;33.00;32.25;20.25
30713;PMS7003;17465;47.934;33.430;2023-04-01T16:55:03;24.50;24.00;13.75
30713;PMS7003;17465;47.934;33.430;2023-04-01T16:57:52;22.75;22.25;13.00
30713;PMS7003;17465;47.934;33.430;2023-04-01T17:00:28;26.75;26.75;15.25
30713;PMS7003;17465;47.934;33.430;2023-04-01T17:05:54;22.75;22.75;14.25
30713;PMS7003;17465;47.934;33.430;2023-04-01T17:08:41;24.00;22.25;14.00
30713;PMS7003;17465;47.934;33.430;2023-04-01T17:20:14;14.75;12.00;5.00
30713;PMS7003;17465;47.934;33.430;2023-04-01T17:25:54;26.00;24.25;14.50
30713;PMS7003;17465;47.934;33.430;2023-04-01T17:28:41;23.00;20.75;14.00
30713;PMS7003;17465;47.934;33.430;2023-04-01T17:36:55;29.00;27.75;19.00
30713;PMS7003;17465;47.934;33.430;2023-04-01T17:45:30;22.50;19.75;12.25
30713;PMS7003;17465;47.934;33.430;2023-04-01T17:48:08;21.25;17.75;10.75
30713;PMS7003;17465;47.934;33.430;2023-04-01T17:59:44;22.75;21.50;14.50
30713;PMS7003;17465;47.934;33.430;2023-04-01T18:02:28;18.75;17.50;11.50
30713;PMS7003;17465;47.934;33.430;2023-04-01T18:14:13;11.25;10.75;5.25
30713;PMS7003;17465;47.934;33.430;2023-04-01T18:16:59;16.75;16.75;10.50
30713;PMS7003;17465;47.934;33.430;2023-04-01T18:22:55;23.50;22.00;16.00
30713;PMS7003;17465;47.934;33.430;2023-04-01T18:25:37;22.00;18.75;11.50
30713;PMS7003;17465;47.934;33.430;2023-04-01T18:30:50;21.25;18.25;10.75
30713;PMS7003;17465;47.934;33.430;2023-04-01T18:33:29;18.25;16.25;12.75
30713;PMS7003;17465;47.934;33.430;2023-04-01T18:36:50;16.75;16.25;10.00
30713;PMS7003;17465;47.934;33.430;2023-04-01T18:42:18;21.00;20.00;11.50
30713;PMS7003;17465;47.934;33.430;2023-04-01T18:47:43;16.25;15.00;8.00
30713;PMS7003;17465;47.934;33.430;2023-04-01T18:56:30;27.75;23.75;15.00
30713;PMS7003;17465;47.934;33.430;2023-04-01T18:59:20;41.50;37.75;22.00
30713;PMS7003;17465;47.934;33.430;2023-04-01T19:05:04;21.25;21.25;14.25
30713;PMS7003;17465;47.934;33.430;2023-04-01T19:07:45;19.25;19.00;11.00
30713;PMS7003;17465;47.934;33.430;2023-04-01T19:10:37;21.00;19.50;11.50
30713;PMS7003;17465;47.934;33.430;2023-04-01T19:21:57;23.25;20.50;11.50
30713;PMS7003;17465;47.934;33.430;2023-04-01T19:27:55;20.75;20.75;13.25
30713;PMS7003;17465;47.934;33.430;2023-04-01T19:30:45;21.50;18.50;10.00
30713;PMS7003;17465;47.934;33.430;2023-04-01T19:47:51;17.25;17.00;10.25
30713;PMS7003;17465;47.934;33.430;2023-04-01T19:50:48;27.50;20.75;15.00
30713;PMS7003;17465;47.934;33.430;2023-04-01T19:58:54;17.75;17.75;10.25
30713;PMS7003;17465;47.934;33.430;2023-04-01T20:01:27;21.75;21.00;13.25
30713;PMS7003;17465;47.934;33.430;2023-04-01T20:04:07;18.75;18.50;13.25
30713;PMS7003;17465;47.934;33.430;2023-04-01T20:07:00;24.00;20.50;14.75
30713;PMS7003;17465;47.934;33.430;2023-04-01T20:12:35;21.25;20.00;11.25
30713;PMS7003;17465;47.934;33.430;2023-04-01T20:26:49;20.00;19.25;13.75
30713;PMS7003;17465;47.934;33.430;2023-04-01T20:35:02;19.25;18.25;13.00
30713;PMS7003;17465;47.934;33.430;2023-04-01T20:37:48;23.50;20.50;10.00
30713;PMS7003;17465;47.934;33.430;2023-04-01T20:40:28;22.75;18.75;10.00
30713;PMS7003;17465;47.934;33.430;2023-04-01T20:52:06;13.75;13.00;7.75
30713;PMS7003;17465;47.934;33.430;2023-04-01T20:57:16;17.75;17.00;7.75
30713;PMS7003;17465;47.934;33.430;2023-04-01T21:11:27;19.25;18.75;11.00
30713;PMS7003;17465;47.934;33.430;2023-04-01T21:33:34;13.25;11.75;7.75
30713;PMS7003;17465;47.934;33.430;2023-04-01T21:44:32;18.50;15.50;8.00
30713;PMS7003;17465;47.934;33.430;2023-04-01T21:47:16;13.75;13.00;6.00
30713;PMS7003;17465;47.934;33.430;2023-04-01T22:08:00;15.00;12.25;8.75
30713;PMS7003;17465;47.934;33.430;2023-04-01T22:10:49;16.00;14.50;9.00
30713;PMS7003;17465;47.934;33.430;2023-04-01T22:13:26;13.25;12.50;9.00
30713;PMS7003;17465;47.934;33.430;2023-04-01T22:16:11;10.25;10.25;3.00
30713;PMS7003;17465;47.934;33.430;2023-04-01T22:30:04;11.25;9.00;4.50
30713;PMS7003;17465;47.934;33.430;2023-04-01T22:41:17;13.25;13.25;7.50
30713;PMS7003;17465;47.934;33.430;2023-04-01T22:43:51;15.50;15.00;7.75
30713;PMS7003;17465;47.934;33.430;2023-04-01T22:52:01;10.00;10.00;7.75
30713;PMS7003;17465;47.934;33.430;2023-04-01T22:54:41;13.25;12.50;8.25
30713;PMS7003;17465;47.934;33.430;2023-04-01T23:03:34;17.50;12.50;7.75
30713;PMS7003;17465;47.934;33.430;2023-04-01T23:05:20;12.50;12.50;7.00
30713;PMS7003;17465;47.934;33.430;2023-04-01T23:08:19;12.50;9.25;3.25
30713;PMS7003;17465;47.934;33.430;2023-04-01T23:10:58;16.00;14.25;7.25
30713;PMS7003;17465;47.934;33.430;2023-04-01T23:13:38;10.50;10.50;7.25
30713;PMS7003;17465;47.934;33.430;2023-04-01T23:16:12;12.00;12.00;7.00
30713;PMS7003;17465;47.934;33.430;2023-04-01T23:18:46;11.50;9.75;5.50
30713;PMS7003;17465;47.934;33.430;2023-04-01T23:21:44;13.25;12.50;8.00
30713;PMS7003;17465;47.934;33.430;2023-04-01T23:24:19;9.25;9.25;3.25
30713;PMS7003;17465;47.934;33.430;2023-04-01T23:26:56;10.25;9.25;4.50
30713;PMS7003;17465;47.934;33.430;2023-04-01T23:29:43;12.00;10.00;7.50
30713;PMS7003;17465;47.934;33.430;2023-04-01T23:32:22;8.25;8.25;6.00
30713;PMS7003;17465;47.934;33.430;2023-04-01T23:34:56;13.00;12.00;6.50
30713;PMS7003;17465;47.934;33.430;2023-04-01T23:37:29;12.50;12.00;7.25
30713;PMS7003;17465;47.934;33.430;2023-04-01T23:39:59;10.25;9.00;6.00
30713;PMS7003;17465;47.934;33.430;2023-04-01T23:42:31;11.25;11.25;7.25
30713;PMS7003;17465;47.934;33.430;2023-04-01T23:45:26;20.50;17.00;8.00
30713;PMS7003;17465;47.934;33.430;2023-04-01T23:47:49;13.25;11.75;7.00
30713;PMS7003;17465;47.934;33.430;2023-04-01T23:50:24;12.75;11.50;7.25
30713;PMS7003;17465;47.934;33.430;2023-04-01T23:53:04;6.75;6.75;3.00
30713;PMS7003;17465;47.934;33.430;2023-04-01T23:55:35;12.75;12.25;6.75
